Time;durP1;ratioP1;P1;durP2;ratioP2;P2;SDS_P1;SDS_P2;PMS_P1;PMS_P2;Temp;Humidity;BMP_temperature;BMP_pressure;BME280_temperature;BME280_humidity;BME280_pressure;Samples;Min_cycle;Max_cycle;Signal;HPM_P1;HPM_P2
2021/04/15 00:01:21;;;;;;;41.35;26.80;;;;;;;14.69;51.25;100303.20;1832033;77;21142;-74
2021/04/15 00:03:49;;;;;;;41.28;24.92;;;;;;;14.69;51.24;100294.59;1831440;78;21137;-75
2021/04/15 00:06:22;;;;;;;49.05;26.77;;;;;;;14.70;51.28;100299.47;1807739;78;21633;-75
2021/04/15 00:25:17;;;;;;;26.12;17.05;;;;;;;14.69;51.89;100298.64;1784361;80;21050;-75
2021/04/15 00:27:45;;;;;;;24.10;17.30;;;;;;;14.69;51.89;100295.94;1797918;79;21161;-76
2021/04/15 00:30:16;;;;;;;25.97;17.20;;;;;;;14.68;51.95;100289.40;1798060;79;21057;-76
2021/04/15 00:32:44;;;;;;;25.15;17.62;;;;;;;14.67;52.02;100291.27;1854414;77;21526;-74
2021/04/15 00:35:13;;;;;;;25.97;17.57;;;;;;;14.69;52.16;100291.06;1854553;77;21505;-74
2021/04/15 00:37:42;;;;;;;25.10;17.75;;;;;;;14.70;52.39;100290.03;1784816;80;21505;-74
2021/04/15 00:40:11;;;;;;;24.95;18.27;;;;;;;14.70;52.57;100285.47;1817000;79;21573;-74
2021/04/15 00:42:39;;;;;;;32.25;20.10;;;;;;;14.72;52.67;100289.34;1817874;77;21117;-76
2021/04/15 00:45:24;;;;;;;26.05;18.77;;;;;;;14.73;52.84;100291.53;1761236;81;21151;-75
2021/04/15 00:48:06;;;;;;;29.45;19.62;;;;;;;14.71;52.75;100284.95;1754991;81;21058;-75
2021/04/15 00:50:57;;;;;;;29.75;19.80;;;;;;;14.69;52.89;100287.85;1761309;81;21071;-76
2021/04/15 00:53:38;;;;;;;35.10;22.37;;;;;;;14.69;53.11;100282.97;1761326;81;21075;-75
2021/04/15 00:56:07;;;;;;;35.28;23.87;;;;;;;14.69;53.40;100278.93;1763592;80;21182;-74
2021/04/15 00:58:35;;;;;;;39.25;24.70;;;;;;;14.69;53.55;100281.11;1752204;80;21146;-76
2021/04/15 01:01:02;;;;;;;;;;;;;;;14.71;53.63;100276.87;1771592;81;21197;-74
2021/04/15 01:03:32;;;;;;;38.92;24.27;;;;;;;14.70;53.64;100269.30;1769581;81;20298;-75
2021/04/15 01:06:06;;;;;;;41.65;25.00;;;;;;;14.68;53.66;100274.05;1831561;78;21099;-75
2021/04/15 01:08:33;;;;;;;38.63;25.35;;;;;;;14.67;53.67;100264.30;1831806;77;21082;-76
2021/04/15 01:11:42;;;;;;;38.08;26.42;;;;;;;14.68;53.68;100263.79;1804035;77;21557;-74
2021/04/15 01:14:41;;;;;;;42.65;26.02;;;;;;;14.70;53.67;100261.20;1808458;78;21114;-75
2021/04/15 01:17:29;;;;;;;46.02;28.15;;;;;;;14.69;53.64;100252.80;1809258;79;21189;-75
2021/04/15 01:20:18;;;;;;;41.85;27.90;;;;;;;14.71;53.48;100254.78;1808893;79;21192;-75
2021/04/15 01:23:09;;;;;;;46.90;27.67;;;;;;;14.71;53.48;100254.78;1808198;78;21209;-73
2021/04/15 01:26:03;;;;;;;40.30;25.75;;;;;;;14.70;53.41;100251.77;1808603;77;21197;-74
2021/04/15 01:28:53;;;;;;;41.53;25.77;;;;;;;14.69;53.32;100250.11;1798145;77;21165;-76
2021/04/15 01:31:48;;;;;;;44.50;27.40;;;;;;;14.73;53.21;100250.57;1797967;79;21643;-74
2021/04/15 01:34:31;;;;;;;45.17;27.00;;;;;;;14.74;53.18;100240.62;1797725;79;21180;-74
2021/04/15 01:37:10;;;;;;;37.23;25.90;;;;;;;14.76;53.09;100245.29;1799047;79;21184;-76
2021/04/15 01:39:44;;;;;;;41.05;26.15;;;;;;;14.75;53.03;100243.11;1799128;79;21159;-75
2021/04/15 01:42:23;;;;;;;39.98;25.30;;;;;;;14.74;53.01;100241.97;1778126;79;21052;-74
2021/04/15 01:45:00;;;;;;;39.10;25.27;;;;;;;14.75;52.97;100236.89;1799185;79;21060;-75
2021/04/15 01:47:53;;;;;;;45.45;27.13;;;;;;;14.76;52.97;100245.29;1777198;79;21602;-74
2021/04/15 01:50:28;;;;;;;36.70;25.17;;;;;;;14.78;52.99;100235.17;1799372;79;21491;-75
2021/04/15 01:52:59;;;;;;;43.52;27.30;;;;;;;14.79;53.02;100236.83;1799230;79;21024;-74
2021/04/15 01:55:43;;;;;;;43.05;27.77;;;;;;;14.80;53.01;100237.15;1783406;80;21193;-75
2021/04/15 01:58:19;;;;;;;45.85;25.80;;;;;;;14.80;52.99;100234.45;1747112;80;21116;-74
2021/04/15 02:00:49;;;;;;;43.25;25.08;;;;;;;14.78;52.93;100232.47;1760684;81;21612;-75
2021/04/15 02:03:23;;;;;;;50.33;25.00;;;;;;;14.79;52.88;100229.58;1789418;80;21197;-75
2021/04/15 02:06:00;;;;;;;39.42;24.92;;;;;;;14.80;52.83;100236.63;1789429;80;21584;-75
2021/04/15 02:08:32;;;;;;;41.73;25.97;;;;;;;14.81;52.80;100233.45;1840475;77;20976;-75
2021/04/15 02:11:10;;;;;;;38.58;24.70;;;;;;;14.83;52.83;100232.73;1767560;79;21150;-74
2021/04/15 02:13:40;;;;;;;43.17;26.07;;;;;;;14.82;52.84;100235.11;1723572;83;21143;-75
2021/04/15 02:16:09;;;;;;;36.42;24.50;;;;;;;14.82;52.95;100241.85;1771963;79;21130;-74
2021/04/15 02:18:45;;;;;;;34.90;22.35;;;;;;;14.80;52.99;100239.84;1795820;78;21237;-75
2021/04/15 02:21:21;;;;;;;44.67;26.12;;;;;;;14.76;53.10;100238.06;1815705;78;21046;-76
2021/04/15 02:23:51;;;;;;;42.75;25.40;;;;;;;14.73;53.17;100232.21;1796480;79;21163;-75
2021/04/15 02:26:26;;;;;;;42.73;26.82;;;;;;;14.70;53.27;100240.16;1773624;80;21137;-75
2021/04/15 02:29:03;;;;;;;40.67;25.97;;;;;;;14.67;53.37;100229.74;1802478;78;21072;-75
2021/04/15 02:31:45;;;;;;;42.50;27.13;;;;;;;14.63;53.43;100227.97;1799604;79;21128;-74
2021/04/15 02:34:30;;;;;;;44.70;27.37;;;;;;;14.64;53.43;100232.33;1793975;79;21080;-75
2021/04/15 02:37:19;;;;;;;41.18;26.55;;;;;;;14.62;53.44;100234.36;1808730;79;21155;-75
2021/04/15 02:39:51;;;;;;;52.90;28.30;;;;;;;14.59;53.47;100227.19;1795398;79;21311;-74
2021/04/15 02:42:25;;;;;;;67.95;36.33;;;;;;;14.57;53.50;100232.75;1795701;79;21190;-75
2021/04/15 02:44:59;;;;;;;68.05;37.20;;;;;;;14.57;53.48;100238.66;1772434;80;21074;-74
2021/04/15 02:47:35;;;;;;;67.55;36.90;;;;;;;14.55;53.44;100233.46;1812780;79;21620;-73
2021/04/15 02:50:07;;;;;;;53.85;32.10;;;;;;;14.53;53.40;100223.37;1816011;79;21082;-74
2021/04/15 02:52:38;;;;;;;49.65;28.27;;;;;;;14.54;53.39;100228.27;1781970;79;21081;-75
2021/04/15 02:55:13;;;;;;;49.03;28.10;;;;;;;14.52;53.40;100225.75;1803766;78;21179;-73
2021/04/15 02:57:45;;;;;;;47.48;28.30;;;;;;;14.55;53.37;100223.20;1798493;79;21113;-74
2021/04/15 03:00:31;;;;;;;42.35;26.33;;;;;;;14.56;53.33;100220.30;1802187;78;21078;-75
2021/04/15 03:03:10;;;;;;;39.00;24.85;;;;;;;14.59;53.19;100210.50;1831856;78;21098;-74
2021/04/15 03:06:03;;;;;;;;;;;;;;;14.62;53.14;100218.19;1834629;78;21126;-74
2021/04/15 03:08:30;;;;;;;45.88;25.20;;;;;;;14.60;53.12;100209.47;1829612;78;20211;-74
2021/04/15 03:11:05;;;;;;;36.30;22.98;;;;;;;14.57;53.13;100221.97;1802454;79;21610;-76
2021/04/15 03:13:46;;;;;;;40.98;24.70;;;;;;;14.56;53.15;100215.43;1770814;78;21083;-75
2021/04/15 03:16:13;;;;;;;38.95;25.43;;;;;;;14.55;53.20;100222.69;1802262;78;21060;-75
2021/04/15 03:18:51;;;;;;;39.88;25.08;;;;;;;14.56;53.34;100223.00;1826399;78;21133;-76
2021/04/15 03:21:23;;;;;;;41.55;26.25;;;;;;;14.57;53.38;100223.31;1828142;77;21673;-76
2021/04/15 03:24:01;;;;;;;40.17;24.63;;;;;;;14.59;53.43;100222.63;1795859;79;21190;-75
2021/04/15 03:26:43;;;;;;;39.10;25.27;;;;;;;14.59;53.49;100222.63;1794037;78;21257;-74
2021/04/15 03:29:29;;;;;;;37.85;24.92;;;;;;;14.57;53.57;100221.97;1797659;79;21200;-74
2021/04/15 03:32:28;;;;;;;36.95;23.60;;;;;;;14.56;53.66;100220.30;1799727;77;21482;-74
2021/04/15 03:35:21;;;;;;;42.75;26.25;;;;;;;14.57;53.85;100219.27;1799683;79;21166;-73
2021/04/15 03:38:14;;;;;;;42.50;26.27;;;;;;;14.59;54.00;100214.55;1799118;79;21571;-75
2021/04/15 03:40:48;;;;;;;39.05;24.43;;;;;;;14.61;54.12;100217.87;1805714;78;21129;-74
2021/04/15 03:43:23;;;;;;;39.85;24.65;;;;;;;14.60;54.16;100212.68;1811330;78;21653;-76
2021/04/15 03:46:07;;;;;;;36.30;24.43;;;;;;;14.61;54.20;100216.52;1809175;78;21169;-75
2021/04/15 03:48:42;;;;;;;34.90;23.77;;;;;;;14.60;54.22;100221.59;1808512;78;21170;-75
2021/04/15 03:51:15;;;;;;;37.75;22.95;;;;;;;14.61;54.20;100227.30;1814864;78;21216;-75
2021/04/15 03:53:49;;;;;;;40.95;26.15;;;;;;;14.58;54.25;100231.75;1810275;77;21166;-76
2021/04/15 03:56:34;;;;;;;36.25;23.73;;;;;;;14.57;54.27;100231.40;1763872;81;21241;-76
2021/04/15 03:59:19;;;;;;;36.08;23.90;;;;;;;14.57;54.28;100238.14;1824986;77;21429;-74
2021/04/15 04:01:50;;;;;;;37.35;25.00;;;;;;;14.56;54.35;100245.91;1812776;78;21182;-74
2021/04/15 04:05:04;;;;;;;59.48;31.95;;;;;;;14.54;54.40;100247.97;1738218;82;21197;-76
2021/04/15 04:07:47;;;;;;;59.70;34.63;;;;;;;14.56;54.41;100247.25;1791208;79;21197;-76
2021/04/15 04:10:22;;;;;;;73.75;37.67;;;;;;;14.56;54.40;100247.25;1807889;78;21082;-75
2021/04/15 04:13:20;;;;;;;68.15;37.88;;;;;;;14.53;54.40;100250.31;1776200;79;21652;-76
2021/04/15 04:15:52;;;;;;;69.92;37.40;;;;;;;14.50;54.22;100245.84;1747172;81;21202;-76
2021/04/15 04:19:00;;;;;;;65.08;33.85;;;;;;;14.49;54.11;100247.70;1825086;78;21696;-77
2021/04/15 04:22:04;;;;;;;64.42;33.90;;;;;;;14.46;53.98;100238.61;1801548;78;21681;-75
2021/04/15 04:24:48;;;;;;;68.42;36.68;;;;;;;14.47;53.93;100237.58;1842155;76;22759;-76
2021/04/15 04:27:33;;;;;;;72.40;38.53;;;;;;;14.46;53.96;100244.00;1826996;77;21639;-76
2021/04/15 04:30:22;;;;;;;67.00;33.80;;;;;;;14.47;53.94;100242.97;1810239;77;21233;-76
2021/04/15 04:32:58;;;;;;;57.23;30.90;;;;;;;14.51;53.89;100241.60;1763495;80;21223;-75
2021/04/15 04:35:29;;;;;;;51.30;27.42;;;;;;;14.52;53.78;100239.22;1812625;78;21151;-75
2021/04/15 04:38:00;;;;;;;58.10;27.55;;;;;;;14.52;53.82;100244.61;1780536;78;21757;-74
2021/04/15 04:40:41;;;;;;;67.92;41.20;;;;;;;14.54;53.79;100242.58;1792388;78;21175;-75
2021/04/15 04:43:44;;;;;;;85.38;46.68;;;;;;;14.58;53.78;100240.31;1800618;78;21171;-75
2021/04/15 04:46:19;;;;;;;80.55;47.17;;;;;;;14.61;53.86;100234.56;1798362;78;20983;-76
2021/04/15 04:48:55;;;;;;;82.92;48.55;;;;;;;14.64;53.84;100242.27;1800925;77;20963;-76
2021/04/15 04:51:24;;;;;;;70.25;42.35;;;;;;;14.63;53.80;100240.09;1795012;77;21630;-74
2021/04/15 04:53:53;;;;;;;69.80;42.35;;;;;;;14.62;53.87;100239.75;1809296;78;20958;-78
2021/04/15 04:56:28;;;;;;;69.97;44.83;;;;;;;14.66;53.86;100241.05;1812031;77;21131;-77
2021/04/15 04:59:00;;;;;;;76.15;46.08;;;;;;;14.75;53.69;100236.89;1816684;78;21472;-76
2021/04/15 05:01:27;;;;;;;71.75;45.12;;;;;;;14.78;53.51;100243.26;1811603;78;21578;-76
2021/04/15 05:04:00;;;;;;;73.83;46.58;;;;;;;14.76;53.45;100246.64;1813775;78;21170;-74
2021/04/15 05:06:34;;;;;;;77.55;46.10;;;;;;;14.70;53.37;100246.38;1806832;78;21089;-76
2021/04/15 05:09:26;;;;;;;72.10;41.10;;;;;;;14.64;53.44;100252.55;1807075;77;21551;-76
2021/04/15 05:11:55;;;;;;;71.25;43.38;;;;;;;14.57;53.48;100255.66;1783597;79;20988;-75
2021/04/15 05:14:26;;;;;;;79.90;46.80;;;;;;;14.54;53.50;100250.66;1809226;79;21557;-76
2021/04/15 05:17:17;;;;;;;78.33;44.83;;;;;;;14.52;53.52;100252.70;1814672;78;21113;-76
2021/04/15 05:19:45;;;;;;;77.42;45.08;;;;;;;14.50;53.60;100250.72;1816961;78;21101;-77
2021/04/15 05:22:19;;;;;;;83.37;48.87;;;;;;;14.46;53.83;100244.00;1812880;78;21081;-75
2021/04/15 05:24:49;;;;;;;77.58;44.73;;;;;;;14.49;53.91;100249.05;1785840;78;21922;-76
2021/04/15 05:27:19;;;;;;;52.23;29.52;;;;;;;14.56;53.79;100254.00;1824616;78;21175;-76
2021/04/15 05:29:47;;;;;;;48.73;29.87;;;;;;;14.62;53.74;100258.62;1811200;77;21726;-75
2021/04/15 05:32:16;;;;;;;54.45;28.92;;;;;;;14.55;53.86;100246.11;1813234;78;20974;-77
2021/04/15 05:34:50;;;;;;;48.33;29.35;;;;;;;14.56;53.92;100244.56;1817902;77;21102;-77
2021/04/15 05:37:20;;;;;;;54.83;29.95;;;;;;;14.57;53.99;100242.19;1840505;76;20938;-76
2021/04/15 05:39:48;;;;;;;46.70;27.05;;;;;;;14.61;54.00;100239.44;1800845;77;21001;-75
2021/04/15 05:42:35;;;;;;;45.67;25.15;;;;;;;14.66;54.00;100249.12;1814053;77;21103;-76
2021/04/15 05:45:11;;;;;;;42.13;22.43;;;;;;;14.69;53.93;100245.23;1817871;77;21127;-76
2021/04/15 05:47:56;;;;;;;37.25;21.50;;;;;;;14.71;53.86;100249.39;1818008;77;21111;-76
2021/04/15 05:50:34;;;;;;;38.95;22.82;;;;;;;14.75;53.78;100243.11;1815867;77;20999;-75
2021/04/15 05:53:22;;;;;;;36.70;22.27;;;;;;;14.77;53.75;100248.34;1797063;78;21100;-76
2021/04/15 05:55:52;;;;;;;37.13;23.18;;;;;;;14.83;53.63;100244.34;1818250;78;21616;-77
2021/04/15 05:58:37;;;;;;;37.63;22.05;;;;;;;14.85;53.57;100246.84;1793409;78;21113;-75
2021/04/15 06:01:21;;;;;;;27.05;17.60;;;;;;;14.87;53.44;100242.11;1825462;77;21435;-78
2021/04/15 06:04:01;;;;;;;30.75;19.20;;;;;;;14.89;53.18;100237.34;1806697;77;21148;-76
2021/04/15 06:06:30;;;;;;;31.25;19.60;;;;;;;14.92;53.16;100246.41;1811804;77;21194;-79
2021/04/15 06:08:58;;;;;;;30.27;20.23;;;;;;;14.91;53.18;100238.84;1820099;77;21575;-75
2021/04/15 06:11:57;;;;;;;29.07;20.85;;;;;;;14.91;53.22;100243.41;1799582;78;21098;-78
2021/04/15 06:14:47;;;;;;;36.77;24.87;;;;;;;14.90;53.30;100243.09;1823114;77;21141;-77
2021/04/15 06:17:35;;;;;;;35.88;26.62;;;;;;;14.89;53.39;100245.44;1821157;77;20982;-76
2021/04/15 06:20:18;;;;;;;45.80;29.67;;;;;;;14.88;53.42;100247.82;1822649;77;20990;-75
2021/04/15 06:22:50;;;;;;;42.33;25.23;;;;;;;14.86;53.52;100249.89;1800274;78;21115;-75
2021/04/15 06:25:21;;;;;;;34.40;22.80;;;;;;;14.88;53.59;100241.08;1819406;77;21609;-74
2021/04/15 06:27:49;;;;;;;31.15;22.50;;;;;;;14.91;53.45;100240.70;1819925;77;21127;-77
2021/04/15 06:30:29;;;;;;;32.17;21.77;;;;;;;14.93;53.38;100250.77;1819621;77;20975;-76
2021/04/15 06:32:59;;;;;;;30.27;21.55;;;;;;;14.93;53.30;100242.69;1821031;77;21564;-75
2021/04/15 06:35:30;;;;;;;36.23;22.85;;;;;;;14.95;53.24;100248.73;1820148;76;21073;-77
2021/04/15 06:38:12;;;;;;;37.55;23.47;;;;;;;14.98;53.23;100246.47;1816044;78;21607;-76
2021/04/15 06:41:07;;;;;;;33.67;21.65;;;;;;;14.96;53.34;100251.75;1813060;78;21120;-78
2021/04/15 06:43:57;;;;;;;43.38;24.55;;;;;;;14.96;53.34;100251.75;1829130;76;21174;-75
2021/04/15 06:47:06;;;;;;;35.70;23.95;;;;;;;14.93;53.45;100257.52;1850915;75;21130;-78
2021/04/15 06:50:07;;;;;;;39.25;26.23;;;;;;;14.91;53.43;100258.23;1847802;76;21520;-75
2021/04/15 06:53:00;;;;;;;31.65;22.40;;;;;;;14.93;53.39;100258.86;1839702;77;21612;-75
2021/04/15 06:55:59;;;;;;;34.30;21.70;;;;;;;15.03;53.22;100256.68;1810688;78;21137;-75
2021/04/15 06:58:46;;;;;;;35.50;20.48;;;;;;;15.18;53.07;100251.25;1814464;77;21703;-75
2021/04/15 07:01:43;;;;;;;37.45;21.95;;;;;;;15.42;52.72;100252.70;1811669;77;21167;-76
2021/04/15 07:04:27;;;;;;;43.52;22.77;;;;;;;15.67;52.25;100255.33;1812319;78;21116;-75
2021/04/15 07:07:19;;;;;;;40.60;23.27;;;;;;;15.89;51.65;100256.08;1784031;78;21095;-76
2021/04/15 07:10:17;;;;;;;33.33;20.85;;;;;;;16.05;51.28;100254.13;1785227;78;21145;-75
2021/04/15 07:13:09;;;;;;;30.02;20.62;;;;;;;16.23;50.87;100253.08;1819678;78;21107;-76
2021/04/15 07:16:04;;;;;;;25.60;17.95;;;;;;;16.38;50.50;100248.36;1817835;78;21142;-76
2021/04/15 07:18:57;;;;;;;27.82;17.90;;;;;;;16.50;50.22;100239.17;1816869;78;21115;-76
2021/04/15 07:21:39;;;;;;;25.00;18.25;;;;;;;16.65;49.77;100234.42;1812841;78;21092;-74
2021/04/15 07:24:34;;;;;;;33.58;19.42;;;;;;;16.74;49.41;100239.17;1816553;78;21098;-76
2021/04/15 07:27:24;;;;;;;31.23;22.10;;;;;;;16.77;49.14;100237.94;1816180;77;21135;-76
2021/04/15 07:30:32;;;;;;;30.57;19.25;;;;;;;16.76;49.02;100240.30;1824437;78;21938;-77
2021/04/15 07:33:11;;;;;;;29.10;20.17;;;;;;;16.68;48.91;100238.09;1819686;77;21099;-76
2021/04/15 07:35:48;;;;;;;29.63;21.65;;;;;;;16.57;49.11;100236.47;1807924;78;21488;-78
2021/04/15 07:38:39;;;;;;;34.77;22.43;;;;;;;16.46;49.31;100235.20;1821668;78;21615;-76
2021/04/15 07:41:54;;;;;;;30.25;19.60;;;;;;;16.41;49.43;100242.56;1802255;78;21139;-76
2021/04/15 07:44:45;;;;;;;27.32;16.77;;;;;;;16.37;49.61;100236.41;1824390;77;20980;-76
2021/04/15 07:48:02;;;;;;;27.67;17.50;;;;;;;16.42;49.75;100232.58;1825321;76;22858;-76
2021/04/15 07:51:05;;;;;;;22.82;16.42;;;;;;;16.36;49.62;100230.69;1795523;77;21218;-77
2021/04/15 07:53:53;;;;;;;26.10;16.80;;;;;;;16.35;49.83;100235.76;1805161;79;21290;-76
2021/04/15 07:57:00;;;;;;;27.75;17.35;;;;;;;16.38;49.81;100227.26;1799397;77;21233;-77
2021/04/15 07:59:54;;;;;;;21.35;15.28;;;;;;;16.45;49.76;100234.89;1789156;79;21107;-76
2021/04/15 08:02:45;;;;;;;25.50;15.30;;;;;;;16.63;49.77;100224.87;1781412;77;21136;-78
2021/04/15 08:05:56;;;;;;;24.80;14.38;;;;;;;16.84;49.39;100226.08;1797737;79;21145;-78
2021/04/15 08:09:00;;;;;;;20.70;14.80;;;;;;;17.07;48.96;100223.52;1803285;79;21114;-78
2021/04/15 08:11:59;;;;;;;22.70;14.45;;;;;;;17.33;48.54;100223.55;1775206;79;21134;-76
2021/04/15 08:14:37;;;;;;;20.68;13.53;;;;;;;17.57;48.08;100218.53;1789120;80;21085;-76
2021/04/15 08:17:35;;;;;;;20.77;13.62;;;;;;;17.84;47.64;100222.07;1807500;79;20973;-75
2021/04/15 08:20:30;;;;;;;20.68;12.40;;;;;;;18.08;47.08;100231.42;1779347;79;21116;-76
2021/04/15 08:23:43;;;;;;;20.08;11.60;;;;;;;18.28;46.24;100224.56;1785091;77;21116;-75
2021/04/15 08:26:40;;;;;;;18.10;14.47;;;;;;;18.40;45.52;100219.63;1798866;77;21159;-76
2021/04/15 08:29:46;;;;;;;22.58;16.45;;;;;;;18.53;45.31;100221.45;1798154;77;21090;-76
2021/04/15 08:32:47;;;;;;;27.42;18.77;;;;;;;18.65;45.07;100216.16;1795232;77;21155;-76
2021/04/15 08:35:48;;;;;;;27.10;16.35;;;;;;;18.74;44.74;100221.14;1800967;77;21100;-76
2021/04/15 08:38:48;;;;;;;22.58;15.35;;;;;;;18.78;44.49;100220.71;1783905;78;21402;-78
2021/04/15 08:41:45;;;;;;;19.60;12.33;;;;;;;18.81;44.44;100226.55;1795047;79;21159;-77
2021/04/15 08:44:51;;;;;;;18.17;10.75;;;;;;;18.72;44.00;100231.92;1802081;77;21117;-77
2021/04/15 08:47:57;;;;;;;17.85;10.65;;;;;;;18.57;44.13;100240.28;1798675;77;21701;-76
2021/04/15 08:50:39;;;;;;;19.35;11.57;;;;;;;18.32;44.35;100230.70;1797481;77;21120;-76
2021/04/15 08:53:36;;;;;;;18.75;11.35;;;;;;;18.09;44.65;100227.13;1801963;77;21157;-76
2021/04/15 08:56:09;;;;;;;13.93;11.18;;;;;;;17.93;44.92;100223.51;1795921;77;21762;-75
2021/04/15 08:59:21;;;;;;;15.25;10.13;;;;;;;17.81;45.33;100219.80;1784523;79;21148;-76
2021/04/15 09:02:03;;;;;;;18.77;12.35;;;;;;;17.81;45.40;100221.16;1803716;78;21555;-77
2021/04/15 09:05:03;;;;;;;23.57;14.80;;;;;;;17.83;45.21;100227.19;1801992;77;21120;-75
2021/04/15 09:07:55;;;;;;;31.15;19.85;;;;;;;17.72;45.12;100222.70;1796524;78;21132;-75
2021/04/15 09:10:55;;;;;;;27.05;15.85;;;;;;;17.57;45.29;100213.95;1788205;79;21172;-76
2021/04/15 09:13:54;;;;;;;25.30;15.80;;;;;;;17.47;45.60;100221.14;1797979;77;21126;-76
2021/04/15 09:16:54;;;;;;;18.57;11.85;;;;;;;17.39;45.73;100211.88;1773945;79;21102;-76
2021/04/15 09:19:55;;;;;;;17.07;11.47;;;;;;;17.32;45.95;100204.81;1803904;79;21474;-76
2021/04/15 09:22:48;;;;;;;18.62;11.93;;;;;;;17.34;46.01;100211.66;1788277;77;21196;-77
2021/04/15 09:25:44;;;;;;;18.48;11.48;;;;;;;17.36;45.95;100212.83;1811586;77;21193;-76
2021/04/15 09:28:35;;;;;;;17.75;9.53;;;;;;;17.33;45.74;100207.30;1786996;77;21210;-77
2021/04/15 09:31:32;;;;;;;13.60;9.70;;;;;;;17.32;46.22;100202.94;1825227;77;21377;-76
2021/04/15 09:34:41;;;;;;;15.25;10.32;;;;;;;17.37;46.27;100203.66;1793381;77;21094;-77
2021/04/15 09:37:25;;;;;;;15.93;10.88;;;;;;;17.37;46.17;100203.14;1776099;77;21108;-77
2021/04/15 09:40:27;;;;;;;17.48;12.85;;;;;;;17.29;46.38;100199.28;1793209;77;21137;-77
2021/04/15 09:43:17;;;;;;;17.98;12.63;;;;;;;17.20;46.67;100204.59;1817089;77;21113;-77
2021/04/15 09:46:07;;;;;;;13.95;11.00;;;;;;;17.16;46.95;100205.52;1781967;78;21973;-77
2021/04/15 09:49:17;;;;;;;22.13;13.03;;;;;;;17.14;46.97;100204.91;1769088;79;21133;-77
2021/04/15 09:52:27;;;;;;;25.15;15.08;;;;;;;17.14;46.89;100209.48;1799538;77;21149;-77
2021/04/15 09:55:15;;;;;;;24.55;16.25;;;;;;;17.17;46.80;100211.79;1776776;79;21120;-76
2021/04/15 09:58:09;;;;;;;25.27;16.67;;;;;;;17.11;46.74;100208.02;1796515;77;21960;-76
2021/04/15 10:00:40;;;;;;;25.80;15.53;;;;;;;17.01;47.03;100209.47;1804634;77;21113;-79
2021/04/15 10:03:29;;;;;;;26.77;16.50;;;;;;;16.90;47.35;100208.22;1806201;77;21089;-77
2021/04/15 10:06:26;;;;;;;31.37;18.77;;;;;;;16.80;47.45;100205.05;1790863;78;21021;-81
2021/04/15 10:09:06;;;;;;;30.10;16.67;;;;;;;16.70;47.72;100208.95;1798750;77;21104;-80
2021/04/15 10:12:10;;;;;;;20.52;13.80;;;;;;;16.63;47.95;100210.00;1777462;77;20991;-76
2021/04/15 10:15:12;;;;;;;16.90;12.82;;;;;;;16.61;48.08;100211.53;1801270;77;21080;-76
2021/04/15 10:18:18;;;;;;;17.65;12.88;;;;;;;16.63;48.05;100204.06;1802337;77;21092;-77
2021/04/15 10:21:31;;;;;;;23.12;15.45;;;;;;;16.63;48.13;100206.77;1781814;78;21218;-78
2021/04/15 10:24:23;;;;;;;19.17;12.50;;;;;;;16.61;48.26;100206.13;1798974;78;21139;-78
2021/04/15 10:27:42;;;;;;;19.50;13.50;;;;;;;16.62;48.30;100197.00;1800465;77;21129;-78
2021/04/15 10:30:35;;;;;;;20.70;13.30;;;;;;;16.63;48.30;100204.06;1756130;79;21480;-77
2021/04/15 10:33:32;;;;;;;20.32;13.62;;;;;;;16.63;48.35;100195.12;1794100;77;21124;-77
2021/04/15 10:36:06;;;;;;;30.43;17.15;;;;;;;16.67;48.40;100196.38;1800476;77;21001;-76
2021/04/15 10:38:56;;;;;;;18.95;13.20;;;;;;;16.65;48.43;100191.16;1800652;78;21128;-78
2021/04/15 10:42:04;;;;;;;20.57;12.47;;;;;;;16.62;48.41;100190.72;1802101;77;21128;-76
2021/04/15 10:45:02;;;;;;;22.17;13.53;;;;;;;16.63;48.37;100193.77;1809518;78;20986;-76
2021/04/15 10:48:17;;;;;;;20.75;12.85;;;;;;;16.66;48.33;100194.17;1799093;77;21140;-75
2021/04/15 10:51:05;;;;;;;20.02;13.13;;;;;;;16.68;48.30;100193.98;1802470;78;21004;-78
2021/04/15 10:53:50;;;;;;;21.33;14.43;;;;;;;16.70;48.46;100188.67;1801766;77;21112;-77
2021/04/15 10:56:32;;;;;;;20.05;14.40;;;;;;;16.72;48.49;100189.34;1800075;78;21590;-77
2021/04/15 10:59:08;;;;;;;24.77;15.48;;;;;;;16.74;48.41;100188.61;1802655;77;21131;-77
2021/04/15 11:01:44;;;;;;;25.15;15.38;;;;;;;16.65;48.58;100189.80;1800244;78;21112;-78
2021/04/15 11:04:23;;;;;;;19.07;11.80;;;;;;;16.64;48.53;100185.44;1758346;79;21147;-75
2021/04/15 11:07:10;;;;;;;17.85;12.47;;;;;;;16.61;48.59;100181.78;1805971;78;21152;-77
2021/04/15 11:09:41;;;;;;;18.85;11.63;;;;;;;16.63;48.65;100181.60;1771108;77;21119;-77
2021/04/15 11:12:23;;;;;;;14.95;11.10;;;;;;;16.57;48.72;100191.34;1801309;78;21647;-77
2021/04/15 11:15:22;;;;;;;18.10;12.73;;;;;;;16.56;48.73;100182.92;1803191;77;21451;-75
2021/04/15 11:17:48;;;;;;;22.35;15.35;;;;;;;16.59;48.84;100187.93;1795523;77;21187;-75
2021/04/15 11:20:27;;;;;;;21.20;13.80;;;;;;;16.48;49.11;100181.22;1743690;79;21100;-76
2021/04/15 11:23:14;;;;;;;21.90;12.80;;;;;;;16.42;49.32;100187.45;1798831;78;21111;-74
2021/04/15 11:25:50;;;;;;;29.23;13.70;;;;;;;16.35;49.44;100187.10;1797612;77;21967;-75
2021/04/15 11:28:27;;;;;;;19.02;13.13;;;;;;;16.31;49.64;100179.94;1804355;77;21081;-76
2021/04/15 11:31:02;;;;;;;16.48;11.30;;;;;;;16.32;49.57;100179.42;1817372;77;21108;-76
2021/04/15 11:33:41;;;;;;;21.50;14.07;;;;;;;16.36;49.51;100184.74;1805648;77;21626;-77
2021/04/15 11:36:25;;;;;;;21.23;13.32;;;;;;;16.33;49.49;100172.97;1791419;79;21113;-75
2021/04/15 11:39:08;;;;;;;20.08;10.82;;;;;;;16.34;49.43;100170.58;1807609;79;21133;-77
2021/04/15 11:41:59;;;;;;;23.55;15.23;;;;;;;16.37;49.40;100171.53;1801262;79;21117;-77
2021/04/15 11:44:47;;;;;;;18.42;11.97;;;;;;;16.39;49.36;100170.28;1803515;78;21121;-75
2021/04/15 11:47:29;;;;;;;19.45;12.05;;;;;;;16.40;49.27;100165.73;1803002;79;21148;-76
2021/04/15 11:50:17;;;;;;;16.32;10.63;;;;;;;16.39;49.26;100161.34;1810467;77;21124;-77
2021/04/15 11:52:49;;;;;;;16.77;10.90;;;;;;;16.41;49.23;100164.69;1797150;79;21101;-77
2021/04/15 11:55:25;;;;;;;17.85;12.18;;;;;;;16.44;49.17;100158.86;1803678;79;21124;-74
2021/04/15 11:58:02;;;;;;;16.05;11.25;;;;;;;16.44;49.25;100154.80;1774512;79;21116;-75
2021/04/15 12:00:42;;;;;;;16.52;11.90;;;;;;;16.46;49.29;100159.50;1766277;79;21603;-75
2021/04/15 12:03:17;;;;;;;18.67;12.58;;;;;;;16.49;49.31;100157.75;1775317;77;21112;-76
2021/04/15 12:05:48;;;;;;;21.87;12.68;;;;;;;16.46;49.33;100155.45;1786081;79;21179;-77
2021/04/15 12:08:31;;;;;;;18.37;12.25;;;;;;;16.45;49.43;100151.91;1771610;79;21096;-77
2021/04/15 12:11:26;;;;;;;17.02;12.40;;;;;;;16.43;49.52;100153.14;1810934;79;21546;-77
2021/04/15 12:14:00;;;;;;;16.82;11.28;;;;;;;16.44;49.43;100150.74;1786831;78;21146;-74
2021/04/15 12:16:54;;;;;;;16.05;11.00;;;;;;;16.45;49.49;100147.03;1794344;79;21108;-76
2021/04/15 12:19:51;;;;;;;16.15;11.30;;;;;;;16.46;49.36;100148.69;1799931;79;21103;-76
2021/04/15 12:22:40;;;;;;;17.87;12.40;;;;;;;16.45;49.51;100149.73;1798534;77;21199;-77
2021/04/15 12:25:22;;;;;;;18.35;12.43;;;;;;;16.41;49.58;100143.06;1808619;78;21180;-74
2021/04/15 12:27:53;;;;;;;18.45;11.30;;;;;;;16.38;49.54;100146.99;1792390;79;21176;-79
2021/04/15 12:30:25;;;;;;;22.25;12.68;;;;;;;16.25;49.74;100137.49;1793378;78;21180;-76
2021/04/15 12:33:30;;;;;;;20.43;12.88;;;;;;;16.21;49.81;100147.90;1789987;77;21650;-76
2021/04/15 12:36:01;;;;;;;19.12;12.93;;;;;;;16.18;49.92;100145.59;1773318;79;21117;-75
2021/04/15 12:38:43;;;;;;;20.12;12.90;;;;;;;16.16;50.09;100142.23;1801174;79;21140;-78
2021/04/15 12:41:11;;;;;;;19.40;12.98;;;;;;;16.17;50.16;100135.82;1796103;77;21131;-76
2021/04/15 12:43:43;;;;;;;22.93;14.10;;;;;;;16.18;50.19;100134.78;1804098;79;21085;-77